sensor_id;sensor_type;location;lat;lon;timestamp;temperature;humidity
6758;DHT22;3416;53.074;8.822;2022-07-23T00:00:01;18.40;99.90
6758;DHT22;3416;53.074;8.822;2022-07-23T00:02:28;18.40;99.90
6758;DHT22;3416;53.074;8.822;2022-07-23T00:04:55;18.30;99.90
6758;DHT22;3416;53.074;8.822;2022-07-23T00:07:22;18.30;99.90
6758;DHT22;3416;53.074;8.822;2022-07-23T00:09:50;18.30;99.90
6758;DHT22;3416;53.074;8.822;2022-07-23T00:12:17;18.20;99.90
6758;DHT22;3416;53.074;8.822;2022-07-23T00:14:44;18.20;99.90
6758;DHT22;3416;53.074;8.822;2022-07-23T00:17:12;18.20;99.90
6758;DHT22;3416;53.074;8.822;2022-07-23T00:19:39;18.20;99.90
6758;DHT22;3416;53.074;8.822;2022-07-23T00:22:06;18.10;99.90
6758;DHT22;3416;53.074;8.822;2022-07-23T00:24:33;18.00;99.90
6758;DHT22;3416;53.074;8.822;2022-07-23T00:27:01;18.00;99.90
6758;DHT22;3416;53.074;8.822;2022-07-23T00:29:28;17.90;99.90
6758;DHT22;3416;53.074;8.822;2022-07-23T00:31:55;17.80;99.90
6758;DHT22;3416;53.074;8.822;2022-07-23T00:34:22;17.80;99.90
6758;DHT22;3416;53.074;8.822;2022-07-23T00:36:48;17.90;99.90
6758;DHT22;3416;53.074;8.822;2022-07-23T00:39:15;17.90;99.90
6758;DHT22;3416;53.074;8.822;2022-07-23T00:41:42;17.90;99.90
6758;DHT22;3416;53.074;8.822;2022-07-23T00:44:18;18.00;99.90
6758;DHT22;3416;53.074;8.822;2022-07-23T00:46:48;17.90;99.90
6758;DHT22;3416;53.074;8.822;2022-07-23T00:49:15;17.90;99.90
6758;DHT22;3416;53.074;8.822;2022-07-23T00:51:42;17.80;99.90
6758;DHT22;3416;53.074;8.822;2022-07-23T00:54:09;17.60;99.90
6758;DHT22;3416;53.074;8.822;2022-07-23T00:56:37;17.70;99.90
6758;DHT22;3416;53.074;8.822;2022-07-23T00:59:05;17.70;99.90
6758;DHT22;3416;53.074;8.822;2022-07-23T01:01:34;17.70;99.90
6758;DHT22;3416;53.074;8.822;2022-07-23T01:04:00;17.60;99.90
6758;DHT22;3416;53.074;8.822;2022-07-23T01:06:27;17.60;99.90
6758;DHT22;3416;53.074;8.822;2022-07-23T01:08:56;17.60;99.90
6758;DHT22;3416;53.074;8.822;2022-07-23T01:11:23;17.60;99.90
6758;DHT22;3416;53.074;8.822;2022-07-23T01:13:51;17.50;99.90
6758;DHT22;3416;53.074;8.822;2022-07-23T01:16:19;17.50;99.90
6758;DHT22;3416;53.074;8.822;2022-07-23T01:18:47;17.40;99.90
6758;DHT22;3416;53.074;8.822;2022-07-23T01:21:16;17.20;99.90
6758;DHT22;3416;53.074;8.822;2022-07-23T01:23:46;17.10;99.90
6758;DHT22;3416;53.074;8.822;2022-07-23T01:26:13;16.90;99.90
6758;DHT22;3416;53.074;8.822;2022-07-23T01:28:42;16.80;99.90
6758;DHT22;3416;53.074;8.822;2022-07-23T01:31:10;16.70;99.90
6758;DHT22;3416;53.074;8.822;2022-07-23T01:33:37;16.70;99.90
6758;DHT22;3416;53.074;8.822;2022-07-23T01:36:05;16.60;99.90
6758;DHT22;3416;53.074;8.822;2022-07-23T01:38:33;16.60;99.90
6758;DHT22;3416;53.074;8.822;2022-07-23T01:41:01;16.50;99.90
6758;DHT22;3416;53.074;8.822;2022-07-23T01:43:28;16.50;99.90
6758;DHT22;3416;53.074;8.822;2022-07-23T01:45:55;16.40;99.90
6758;DHT22;3416;53.074;8.822;2022-07-23T01:48:22;16.40;99.90
6758;DHT22;3416;53.074;8.822;2022-07-23T01:50:50;16.40;99.90
6758;DHT22;3416;53.074;8.822;2022-07-23T01:53:16;16.40;99.90
6758;DHT22;3416;53.074;8.822;2022-07-23T01:55:44;16.50;99.90
6758;DHT22;3416;53.074;8.822;2022-07-23T01:58:12;16.50;99.90
6758;DHT22;3416;53.074;8.822;2022-07-23T02:00:39;16.50;99.90
6758;DHT22;3416;53.074;8.822;2022-07-23T02:03:06;16.50;99.90
6758;DHT22;3416;53.074;8.822;2022-07-23T02:05:33;16.50;99.90
6758;DHT22;3416;53.074;8.822;2022-07-23T02:08:00;16.60;99.90
6758;DHT22;3416;53.074;8.822;2022-07-23T02:10:27;16.60;99.90
6758;DHT22;3416;53.074;8.822;2022-07-23T02:12:54;16.60;99.90
6758;DHT22;3416;53.074;8.822;2022-07-23T02:15:22;16.60;99.90
6758;DHT22;3416;53.074;8.822;2022-07-23T02:17:49;16.70;99.90
6758;DHT22;3416;53.074;8.822;2022-07-23T02:20:16;16.60;99.90
6758;DHT22;3416;53.074;8.822;2022-07-23T02:22:43;16.60;99.90
6758;DHT22;3416;53.074;8.822;2022-07-23T02:25:10;16.60;99.90
6758;DHT22;3416;53.074;8.822;2022-07-23T02:27:37;16.60;99.90
6758;DHT22;3416;53.074;8.822;2022-07-23T02:30:05;16.60;99.90
6758;DHT22;3416;53.074;8.822;2022-07-23T02:32:33;16.60;99.90
6758;DHT22;3416;53.074;8.822;2022-07-23T02:35:00;16.60;99.90
6758;DHT22;3416;53.074;8.822;2022-07-23T02:37:28;16.60;99.90
6758;DHT22;3416;53.074;8.822;2022-07-23T02:39:55;16.60;99.90
6758;DHT22;3416;53.074;8.822;2022-07-23T02:42:22;16.50;99.90
6758;DHT22;3416;53.074;8.822;2022-07-23T02:44:49;16.60;99.90
6758;DHT22;3416;53.074;8.822;2022-07-23T02:47:16;16.60;99.90
6758;DHT22;3416;53.074;8.822;2022-07-23T02:49:45;16.60;99.90
6758;DHT22;3416;53.074;8.822;2022-07-23T02:52:12;16.60;99.90
6758;DHT22;3416;53.074;8.822;2022-07-23T02:54:38;16.60;99.90
6758;DHT22;3416;53.074;8.822;2022-07-23T02:57:06;16.60;99.90
6758;DHT22;3416;53.074;8.822;2022-07-23T02:59:32;16.60;99.90
6758;DHT22;3416;53.074;8.822;2022-07-23T03:02:00;16.60;99.90
6758;DHT22;3416;53.074;8.822;2022-07-23T03:04:27;16.60;99.90
6758;DHT22;3416;53.074;8.822;2022-07-23T03:06:56;16.60;99.90
6758;DHT22;3416;53.074;8.822;2022-07-23T03:09:22;16.60;99.90
6758;DHT22;3416;53.074;8.822;2022-07-23T03:11:49;16.60;99.90
6758;DHT22;3416;53.074;8.822;2022-07-23T03:14:17;16.60;99.90
6758;DHT22;3416;53.074;8.822;2022-07-23T03:16:44;16.60;99.90
6758;DHT22;3416;53.074;8.822;2022-07-23T03:19:11;16.50;99.90
6758;DHT22;3416;53.074;8.822;2022-07-23T03:21:38;16.50;99.90
6758;DHT22;3416;53.074;8.822;2022-07-23T03:24:09;16.50;99.90
6758;DHT22;3416;53.074;8.822;2022-07-23T03:26:36;16.50;99.90
6758;DHT22;3416;53.074;8.822;2022-07-23T03:29:03;16.60;99.90
6758;DHT22;3416;53.074;8.822;2022-07-23T03:31:30;16.50;99.90
6758;DHT22;3416;53.074;8.822;2022-07-23T03:33:58;16.50;99.90
6758;DHT22;3416;53.074;8.822;2022-07-23T03:36:25;16.50;99.90
6758;DHT22;3416;53.074;8.822;2022-07-23T03:38:53;16.50;99.90
6758;DHT22;3416;53.074;8.822;2022-07-23T03:41:21;16.50;99.90
6758;DHT22;3416;53.074;8.822;2022-07-23T03:43:48;16.50;99.90
6758;DHT22;3416;53.074;8.822;2022-07-23T03:46:15;16.40;99.90
6758;DHT22;3416;53.074;8.822;2022-07-23T03:48:42;16.40;99.90
6758;DHT22;3416;53.074;8.822;2022-07-23T03:51:09;16.30;99.90
6758;DHT22;3416;53.074;8.822;2022-07-23T03:53:37;16.30;99.90
6758;DHT22;3416;53.074;8.822;2022-07-23T03:56:04;16.30;99.90
6758;DHT22;3416;53.074;8.822;2022-07-23T03:58:34;16.30;99.90
6758;DHT22;3416;53.074;8.822;2022-07-23T04:01:01;16.30;99.90
6758;DHT22;3416;53.074;8.822;2022-07-23T04:03:27;16.30;99.90
6758;DHT22;3416;53.074;8.822;2022-07-23T04:05:55;16.20;99.90
6758;DHT22;3416;53.074;8.822;2022-07-23T04:08:22;16.20;99.90
6758;DHT22;3416;53.074;8.822;2022-07-23T04:10:50;16.20;99.90
6758;DHT22;3416;53.074;8.822;2022-07-23T04:13:17;16.10;99.90
6758;DHT22;3416;53.074;8.822;2022-07-23T04:15:46;16.10;99.90
6758;DHT22;3416;53.074;8.822;2022-07-23T04:18:13;16.10;99.90
6758;DHT22;3416;53.074;8.822;2022-07-23T04:20:42;16.10;99.90
6758;DHT22;3416;53.074;8.822;2022-07-23T04:23:10;16.00;99.90
6758;DHT22;3416;53.074;8.822;2022-07-23T04:25:38;16.10;99.90
6758;DHT22;3416;53.074;8.822;2022-07-23T04:28:06;16.10;99.90
6758;DHT22;3416;53.074;8.822;2022-07-23T04:30:33;16.00;99.90
6758;DHT22;3416;53.074;8.822;2022-07-23T04:33:02;16.00;99.90
6758;DHT22;3416;53.074;8.822;2022-07-23T04:35:31;16.00;99.90
6758;DHT22;3416;53.074;8.822;2022-07-23T04:37:58;16.00;99.90
6758;DHT22;3416;53.074;8.822;2022-07-23T04:40:25;16.00;99.90
6758;DHT22;3416;53.074;8.822;2022-07-23T04:42:52;16.10;99.90
6758;DHT22;3416;53.074;8.822;2022-07-23T04:45:19;16.10;99.90
6758;DHT22;3416;53.074;8.822;2022-07-23T04:47:47;16.20;99.90
6758;DHT22;3416;53.074;8.822;2022-07-23T04:50:15;16.20;99.90
6758;DHT22;3416;53.074;8.822;2022-07-23T04:52:47;16.20;99.90
6758;DHT22;3416;53.074;8.822;2022-07-23T04:55:14;16.20;99.90
6758;DHT22;3416;53.074;8.822;2022-07-23T04:57:41;16.20;99.90
6758;DHT22;3416;53.074;8.822;2022-07-23T05:00:09;16.30;99.90
6758;DHT22;3416;53.074;8.822;2022-07-23T05:02:36;16.90;99.90
6758;DHT22;3416;53.074;8.822;2022-07-23T05:05:04;17.80;99.90
6758;DHT22;3416;53.074;8.822;2022-07-23T05:07:33;18.80;99.90
6758;DHT22;3416;53.074;8.822;2022-07-23T05:09:59;20.00;99.90
6758;DHT22;3416;53.074;8.822;2022-07-23T05:12:26;21.10;99.90
6758;DHT22;3416;53.074;8.822;2022-07-23T05:14:53;21.70;99.90
6758;DHT22;3416;53.074;8.822;2022-07-23T05:17:20;21.80;99.90
6758;DHT22;3416;53.074;8.822;2022-07-23T05:19:47;21.20;99.90
6758;DHT22;3416;53.074;8.822;2022-07-23T05:22:15;20.80;99.90
6758;DHT22;3416;53.074;8.822;2022-07-23T05:24:43;21.00;99.90
6758;DHT22;3416;53.074;8.822;2022-07-23T05:27:10;21.00;99.90
6758;DHT22;3416;53.074;8.822;2022-07-23T05:29:37;21.50;99.90
6758;DHT22;3416;53.074;8.822;2022-07-23T05:32:05;21.80;99.90
6758;DHT22;3416;53.074;8.822;2022-07-23T05:34:32;21.80;99.90
6758;DHT22;3416;53.074;8.822;2022-07-23T05:36:59;21.80;99.90
6758;DHT22;3416;53.074;8.822;2022-07-23T05:39:26;22.40;99.90
6758;DHT22;3416;53.074;8.822;2022-07-23T05:41:54;23.40;99.90
6758;DHT22;3416;53.074;8.822;2022-07-23T05:44:21;24.40;98.10
6758;DHT22;3416;53.074;8.822;2022-07-23T05:46:48;25.20;94.70
6758;DHT22;3416;53.074;8.822;2022-07-23T05:49:16;24.60;94.20
6758;DHT22;3416;53.074;8.822;2022-07-23T05:51:42;24.40;94.70
6758;DHT22;3416;53.074;8.822;2022-07-23T05:54:09;24.50;95.00
6758;DHT22;3416;53.074;8.822;2022-07-23T05:56:36;25.30;94.20
6758;DHT22;3416;53.074;8.822;2022-07-23T05:59:11;25.70;92.60
6758;DHT22;3416;53.074;8.822;2022-07-23T06:01:38;25.90;92.10
6758;DHT22;3416;53.074;8.822;2022-07-23T06:04:07;26.30;91.10
6758;DHT22;3416;53.074;8.822;2022-07-23T06:06:33;26.60;90.80
6758;DHT22;3416;53.074;8.822;2022-07-23T06:09:00;26.80;90.00
6758;DHT22;3416;53.074;8.822;2022-07-23T06:11:27;26.20;90.00
6758;DHT22;3416;53.074;8.822;2022-07-23T06:13:55;25.20;90.80
6758;DHT22;3416;53.074;8.822;2022-07-23T06:16:23;24.90;91.80
6758;DHT22;3416;53.074;8.822;2022-07-23T06:18:50;24.30;92.50
6758;DHT22;3416;53.074;8.822;2022-07-23T06:21:17;23.50;94.10
6758;DHT22;3416;53.074;8.822;2022-07-23T06:23:44;22.80;96.00
6758;DHT22;3416;53.074;8.822;2022-07-23T06:26:13;22.60;97.40
6758;DHT22;3416;53.074;8.822;2022-07-23T06:28:39;22.60;97.60
6758;DHT22;3416;53.074;8.822;2022-07-23T06:31:07;22.50;97.60
6758;DHT22;3416;53.074;8.822;2022-07-23T06:33:35;22.40;98.70
6758;DHT22;3416;53.074;8.822;2022-07-23T06:36:03;23.30;96.90
6758;DHT22;3416;53.074;8.822;2022-07-23T06:38:30;23.70;95.50
6758;DHT22;3416;53.074;8.822;2022-07-23T06:40:57;24.00;95.30
6758;DHT22;3416;53.074;8.822;2022-07-23T06:43:24;25.10;93.50
6758;DHT22;3416;53.074;8.822;2022-07-23T06:45:53;26.00;91.70
6758;DHT22;3416;53.074;8.822;2022-07-23T06:48:20;27.00;90.20
6758;DHT22;3416;53.074;8.822;2022-07-23T06:50:49;27.80;87.40
6758;DHT22;3416;53.074;8.822;2022-07-23T06:53:18;28.20;85.60
6758;DHT22;3416;53.074;8.822;2022-07-23T06:55:45;28.70;83.30
6758;DHT22;3416;53.074;8.822;2022-07-23T06:58:12;29.10;81.10
6758;DHT22;3416;53.074;8.822;2022-07-23T07:00:39;29.70;80.00
6758;DHT22;3416;53.074;8.822;2022-07-23T07:03:06;29.70;77.90
6758;DHT22;3416;53.074;8.822;2022-07-23T07:05:33;28.70;79.20
6758;DHT22;3416;53.074;8.822;2022-07-23T07:08:01;27.90;80.20
6758;DHT22;3416;53.074;8.822;2022-07-23T07:10:28;26.70;82.40
6758;DHT22;3416;53.074;8.822;2022-07-23T07:12:55;26.10;83.30
6758;DHT22;3416;53.074;8.822;2022-07-23T07:15:22;25.20;85.30
6758;DHT22;3416;53.074;8.822;2022-07-23T07:17:49;24.30;88.60
6758;DHT22;3416;53.074;8.822;2022-07-23T07:20:18;24.50;90.60
6758;DHT22;3416;53.074;8.822;2022-07-23T07:22:45;25.80;87.50
6758;DHT22;3416;53.074;8.822;2022-07-23T07:25:13;27.00;84.50
6758;DHT22;3416;53.074;8.822;2022-07-23T07:27:40;27.80;80.70
6758;DHT22;3416;53.074;8.822;2022-07-23T07:30:10;27.90;81.00
6758;DHT22;3416;53.074;8.822;2022-07-23T07:32:37;28.40;80.10
6758;DHT22;3416;53.074;8.822;2022-07-23T07:35:06;27.50;78.80
6758;DHT22;3416;53.074;8.822;2022-07-23T07:37:33;26.40;82.30
6758;DHT22;3416;53.074;8.822;2022-07-23T07:40:00;25.90;83.60
6758;DHT22;3416;53.074;8.822;2022-07-23T07:42:28;25.20;85.20
6758;DHT22;3416;53.074;8.822;2022-07-23T07:44:55;24.50;87.40
6758;DHT22;3416;53.074;8.822;2022-07-23T07:47:22;24.10;88.60
6758;DHT22;3416;53.074;8.822;2022-07-23T07:49:49;23.80;89.80
6758;DHT22;3416;53.074;8.822;2022-07-23T07:52:16;23.30;90.00
6758;DHT22;3416;53.074;8.822;2022-07-23T07:54:43;23.20;90.80
6758;DHT22;3416;53.074;8.822;2022-07-23T07:57:10;22.90;91.50
6758;DHT22;3416;53.074;8.822;2022-07-23T07:59:38;22.80;92.10
6758;DHT22;3416;53.074;8.822;2022-07-23T08:02:05;22.80;92.80
6758;DHT22;3416;53.074;8.822;2022-07-23T08:04:32;22.80;93.20
6758;DHT22;3416;53.074;8.822;2022-07-23T08:06:59;22.80;93.30
6758;DHT22;3416;53.074;8.822;2022-07-23T08:09:27;22.90;93.70
6758;DHT22;3416;53.074;8.822;2022-07-23T08:11:54;22.80;93.80
6758;DHT22;3416;53.074;8.822;2022-07-23T08:14:23;22.90;93.90
6758;DHT22;3416;53.074;8.822;2022-07-23T08:16:51;23.10;94.00
6758;DHT22;3416;53.074;8.822;2022-07-23T08:19:18;23.00;93.70
6758;DHT22;3416;53.074;8.822;2022-07-23T08:21:45;23.00;93.80
6758;DHT22;3416;53.074;8.822;2022-07-23T08:24:12;22.60;94.00
6758;DHT22;3416;53.074;8.822;2022-07-23T08:26:46;22.40;95.00
6758;DHT22;3416;53.074;8.822;2022-07-23T08:29:13;22.20;95.60
6758;DHT22;3416;53.074;8.822;2022-07-23T08:31:39;22.10;95.40
6758;DHT22;3416;53.074;8.822;2022-07-23T08:34:08;21.80;95.50
6758;DHT22;3416;53.074;8.822;2022-07-23T08:36:35;21.70;95.70
6758;DHT22;3416;53.074;8.822;2022-07-23T08:39:02;21.70;96.20
6758;DHT22;3416;53.074;8.822;2022-07-23T08:41:29;21.60;96.90
6758;DHT22;3416;53.074;8.822;2022-07-23T08:43:56;21.50;97.00
6758;DHT22;3416;53.074;8.822;2022-07-23T08:46:27;21.60;97.20
6758;DHT22;3416;53.074;8.822;2022-07-23T08:48:54;21.90;96.80
6758;DHT22;3416;53.074;8.822;2022-07-23T08:51:25;22.00;96.60
6758;DHT22;3416;53.074;8.822;2022-07-23T08:53:53;22.00;96.20
6758;DHT22;3416;53.074;8.822;2022-07-23T08:56:22;21.90;95.90
6758;DHT22;3416;53.074;8.822;2022-07-23T08:58:49;21.70;96.30
6758;DHT22;3416;53.074;8.822;2022-07-23T09:01:16;21.60;96.10
6758;DHT22;3416;53.074;8.822;2022-07-23T09:03:43;21.30;96.30
6758;DHT22;3416;53.074;8.822;2022-07-23T09:06:10;21.20;96.00
6758;DHT22;3416;53.074;8.822;2022-07-23T09:08:42;21.00;96.50
6758;DHT22;3416;53.074;8.822;2022-07-23T09:11:10;21.00;97.00
6758;DHT22;3416;53.074;8.822;2022-07-23T09:13:39;20.90;97.20
6758;DHT22;3416;53.074;8.822;2022-07-23T09:16:09;21.00;97.80
6758;DHT22;3416;53.074;8.822;2022-07-23T09:18:42;21.10;97.60
6758;DHT22;3416;53.074;8.822;2022-07-23T09:21:18;21.40;96.00
6758;DHT22;3416;53.074;8.822;2022-07-23T09:23:52;22.00;95.40
6758;DHT22;3416;53.074;8.822;2022-07-23T09:29:09;22.90;92.90
6758;DHT22;3416;53.074;8.822;2022-07-23T09:31:49;23.00;91.90
6758;DHT22;3416;53.074;8.822;2022-07-23T09:34:21;23.00;92.10
6758;DHT22;3416;53.074;8.822;2022-07-23T09:36:51;23.20;91.50
6758;DHT22;3416;53.074;8.822;2022-07-23T09:39:26;23.50;91.30
6758;DHT22;3416;53.074;8.822;2022-07-23T09:41:53;23.80;90.70
6758;DHT22;3416;53.074;8.822;2022-07-23T09:44:20;24.00;90.70
6758;DHT22;3416;53.074;8.822;2022-07-23T09:46:49;24.20;90.40
6758;DHT22;3416;53.074;8.822;2022-07-23T09:49:18;24.80;90.00
6758;DHT22;3416;53.074;8.822;2022-07-23T09:51:51;25.50;87.80
6758;DHT22;3416;53.074;8.822;2022-07-23T09:54:28;25.60;85.60
6758;DHT22;3416;53.074;8.822;2022-07-23T09:56:58;25.60;86.10
6758;DHT22;3416;53.074;8.822;2022-07-23T09:59:27;26.20;84.60
6758;DHT22;3416;53.074;8.822;2022-07-23T10:01:57;26.30;82.70
6758;DHT22;3416;53.074;8.822;2022-07-23T10:04:26;26.50;81.90
6758;DHT22;3416;53.074;8.822;2022-07-23T10:06:56;27.10;80.70
6758;DHT22;3416;53.074;8.822;2022-07-23T10:09:28;27.30;79.10
6758;DHT22;3416;53.074;8.822;2022-07-23T10:11:57;27.80;78.60
6758;DHT22;3416;53.074;8.822;2022-07-23T10:14:29;28.30;76.00
6758;DHT22;3416;53.074;8.822;2022-07-23T10:16:57;28.30;75.90
6758;DHT22;3416;53.074;8.822;2022-07-23T10:19:24;28.50;74.60
6758;DHT22;3416;53.074;8.822;2022-07-23T10:21:55;28.10;75.00
6758;DHT22;3416;53.074;8.822;2022-07-23T10:24:35;27.50;76.10
6758;DHT22;3416;53.074;8.822;2022-07-23T10:27:17;26.90;77.50
6758;DHT22;3416;53.074;8.822;2022-07-23T10:29:53;26.90;78.60
6758;DHT22;3416;53.074;8.822;2022-07-23T10:32:29;26.90;76.80
6758;DHT22;3416;53.074;8.822;2022-07-23T10:35:06;26.70;77.70
6758;DHT22;3416;53.074;8.822;2022-07-23T10:37:39;26.50;77.90
6758;DHT22;3416;53.074;8.822;2022-07-23T10:40:14;26.10;78.70
6758;DHT22;3416;53.074;8.822;2022-07-23T10:42:43;25.70;80.20
6758;DHT22;3416;53.074;8.822;2022-07-23T10:45:24;25.00;81.50
6758;DHT22;3416;53.074;8.822;2022-07-23T10:47:51;24.40;83.50
6758;DHT22;3416;53.074;8.822;2022-07-23T10:50:23;24.20;85.00
6758;DHT22;3416;53.074;8.822;2022-07-23T10:53:15;24.10;85.80
6758;DHT22;3416;53.074;8.822;2022-07-23T10:55:47;24.40;86.30
6758;DHT22;3416;53.074;8.822;2022-07-23T10:58:19;24.80;85.50
6758;DHT22;3416;53.074;8.822;2022-07-23T11:00:46;25.30;83.70
6758;DHT22;3416;53.074;8.822;2022-07-23T11:03:33;25.50;82.10
6758;DHT22;3416;53.074;8.822;2022-07-23T11:06:04;25.60;82.50
6758;DHT22;3416;53.074;8.822;2022-07-23T11:08:31;25.60;82.40
6758;DHT22;3416;53.074;8.822;2022-07-23T11:11:10;25.60;80.20
6758;DHT22;3416;53.074;8.822;2022-07-23T11:13:55;25.40;81.40
6758;DHT22;3416;53.074;8.822;2022-07-23T11:16:24;25.00;82.00
6758;DHT22;3416;53.074;8.822;2022-07-23T11:19:06;24.60;82.20
6758;DHT22;3416;53.074;8.822;2022-07-23T11:21:44;24.60;82.80
6758;DHT22;3416;53.074;8.822;2022-07-23T11:24:12;24.80;82.10
6758;DHT22;3416;53.074;8.822;2022-07-23T11:27:03;24.50;81.40
6758;DHT22;3416;53.074;8.822;2022-07-23T11:29:41;24.20;82.10
6758;DHT22;3416;53.074;8.822;2022-07-23T11:32:19;24.20;83.00
6758;DHT22;3416;53.074;8.822;2022-07-23T11:34:47;24.10;83.30
6758;DHT22;3416;53.074;8.822;2022-07-23T11:37:34;23.90;82.70
6758;DHT22;3416;53.074;8.822;2022-07-23T11:40:13;24.00;83.70
6758;DHT22;3416;53.074;8.822;2022-07-23T11:42:55;24.30;83.10
6758;DHT22;3416;53.074;8.822;2022-07-23T11:45:23;24.40;83.40
6758;DHT22;3416;53.074;8.822;2022-07-23T11:47:50;24.60;83.40
6758;DHT22;3416;53.074;8.822;2022-07-23T11:50:17;25.00;82.20
6758;DHT22;3416;53.074;8.822;2022-07-23T11:52:44;25.10;82.10
6758;DHT22;3416;53.074;8.822;2022-07-23T11:55:12;25.00;82.40
6758;DHT22;3416;53.074;8.822;2022-07-23T11:57:43;24.90;83.30
6758;DHT22;3416;53.074;8.822;2022-07-23T12:00:13;25.00;82.90
6758;DHT22;3416;53.074;8.822;2022-07-23T12:02:41;24.90;82.70
6758;DHT22;3416;53.074;8.822;2022-07-23T12:05:11;24.90;82.70
6758;DHT22;3416;53.074;8.822;2022-07-23T12:07:40;24.80;81.60
6758;DHT22;3416;53.074;8.822;2022-07-23T12:10:12;24.70;82.40
6758;DHT22;3416;53.074;8.822;2022-07-23T12:12:41;24.60;82.20
6758;DHT22;3416;53.074;8.822;2022-07-23T12:15:11;24.40;83.20
6758;DHT22;3416;53.074;8.822;2022-07-23T12:17:40;24.20;84.30
6758;DHT22;3416;53.074;8.822;2022-07-23T12:20:09;24.00;85.80
6758;DHT22;3416;53.074;8.822;2022-07-23T12:22:39;24.20;86.50
6758;DHT22;3416;53.074;8.822;2022-07-23T12:25:08;24.30;86.90
6758;DHT22;3416;53.074;8.822;2022-07-23T12:27:36;24.30;86.70
6758;DHT22;3416;53.074;8.822;2022-07-23T12:30:29;24.20;86.40
6758;DHT22;3416;53.074;8.822;2022-07-23T12:32:58;24.30;85.70
6758;DHT22;3416;53.074;8.822;2022-07-23T12:35:31;24.40;85.70
6758;DHT22;3416;53.074;8.822;2022-07-23T12:38:01;24.50;85.20
6758;DHT22;3416;53.074;8.822;2022-07-23T12:40:30;24.50;84.30
6758;DHT22;3416;53.074;8.822;2022-07-23T12:42:58;24.70;84.80
6758;DHT22;3416;53.074;8.822;2022-07-23T12:45:26;24.50;84.10
6758;DHT22;3416;53.074;8.822;2022-07-23T12:48:04;24.50;85.00
6758;DHT22;3416;53.074;8.822;2022-07-23T12:50:56;24.30;82.40
6758;DHT22;3416;53.074;8.822;2022-07-23T12:53:24;24.30;82.90
6758;DHT22;3416;53.074;8.822;2022-07-23T12:56:04;24.50;81.00
6758;DHT22;3416;53.074;8.822;2022-07-23T12:58:45;24.70;80.10
6758;DHT22;3416;53.074;8.822;2022-07-23T13:01:23;24.60;79.80
6758;DHT22;3416;53.074;8.822;2022-07-23T13:04:00;24.80;80.30
6758;DHT22;3416;53.074;8.822;2022-07-23T13:06:28;25.00;81.20
6758;DHT22;3416;53.074;8.822;2022-07-23T13:08:56;25.10;80.30
6758;DHT22;3416;53.074;8.822;2022-07-23T13:11:23;25.00;80.00
6758;DHT22;3416;53.074;8.822;2022-07-23T13:13:50;24.90;80.40
6758;DHT22;3416;53.074;8.822;2022-07-23T13:16:17;24.80;80.10
6758;DHT22;3416;53.074;8.822;2022-07-23T13:18:44;24.70;78.40
6758;DHT22;3416;53.074;8.822;2022-07-23T13:21:13;24.60;77.40
6758;DHT22;3416;53.074;8.822;2022-07-23T13:23:47;24.50;77.80
6758;DHT22;3416;53.074;8.822;2022-07-23T13:26:14;24.20;77.90
6758;DHT22;3416;53.074;8.822;2022-07-23T13:28:42;24.20;78.90
6758;DHT22;3416;53.074;8.822;2022-07-23T13:31:09;24.20;79.00
6758;DHT22;3416;53.074;8.822;2022-07-23T13:33:36;24.00;78.90
6758;DHT22;3416;53.074;8.822;2022-07-23T13:36:04;23.70;79.50
6758;DHT22;3416;53.074;8.822;2022-07-23T13:38:33;23.60;79.60
6758;DHT22;3416;53.074;8.822;2022-07-23T13:41:00;23.50;80.70
6758;DHT22;3416;53.074;8.822;2022-07-23T13:43:29;23.60;80.70
6758;DHT22;3416;53.074;8.822;2022-07-23T13:45:56;23.60;80.30
6758;DHT22;3416;53.074;8.822;2022-07-23T13:48:24;23.90;80.80
6758;DHT22;3416;53.074;8.822;2022-07-23T13:50:51;24.00;79.80
6758;DHT22;3416;53.074;8.822;2022-07-23T13:53:20;24.00;79.90
6758;DHT22;3416;53.074;8.822;2022-07-23T13:55:50;24.20;80.00
6758;DHT22;3416;53.074;8.822;2022-07-23T13:58:18;24.20;79.60
6758;DHT22;3416;53.074;8.822;2022-07-23T14:00:48;24.10;79.50
6758;DHT22;3416;53.074;8.822;2022-07-23T14:03:16;23.90;80.10
6758;DHT22;3416;53.074;8.822;2022-07-23T14:05:43;23.80;80.40
6758;DHT22;3416;53.074;8.822;2022-07-23T14:08:11;23.80;80.80
6758;DHT22;3416;53.074;8.822;2022-07-23T14:10:39;23.80;81.50
6758;DHT22;3416;53.074;8.822;2022-07-23T14:13:07;24.00;81.90
6758;DHT22;3416;53.074;8.822;2022-07-23T14:15:35;24.00;81.20
6758;DHT22;3416;53.074;8.822;2022-07-23T14:18:04;24.00;81.90
6758;DHT22;3416;53.074;8.822;2022-07-23T14:20:34;24.10;81.60
6758;DHT22;3416;53.074;8.822;2022-07-23T14:23:01;24.30;81.80
6758;DHT22;3416;53.074;8.822;2022-07-23T14:25:28;24.20;83.20
6758;DHT22;3416;53.074;8.822;2022-07-23T14:27:55;24.30;84.20
6758;DHT22;3416;53.074;8.822;2022-07-23T14:30:24;24.30;84.70
6758;DHT22;3416;53.074;8.822;2022-07-23T14:32:51;24.30;84.40
6758;DHT22;3416;53.074;8.822;2022-07-23T14:35:18;24.20;83.60
6758;DHT22;3416;53.074;8.822;2022-07-23T14:37:45;24.10;83.20
6758;DHT22;3416;53.074;8.822;2022-07-23T14:40:12;24.00;83.60
6758;DHT22;3416;53.074;8.822;2022-07-23T14:42:39;23.90;83.80
6758;DHT22;3416;53.074;8.822;2022-07-23T14:45:07;23.80;84.40
6758;DHT22;3416;53.074;8.822;2022-07-23T14:47:35;23.80;84.30
6758;DHT22;3416;53.074;8.822;2022-07-23T14:50:02;23.50;84.90
6758;DHT22;3416;53.074;8.822;2022-07-23T14:52:29;23.50;85.20
6758;DHT22;3416;53.074;8.822;2022-07-23T14:54:56;23.60;85.00
6758;DHT22;3416;53.074;8.822;2022-07-23T14:57:23;23.80;85.00
6758;DHT22;3416;53.074;8.822;2022-07-23T14:59:51;23.80;84.60
6758;DHT22;3416;53.074;8.822;2022-07-23T15:02:18;24.00;85.80
6758;DHT22;3416;53.074;8.822;2022-07-23T15:04:46;24.10;86.20
6758;DHT22;3416;53.074;8.822;2022-07-23T15:07:13;24.20;85.90
6758;DHT22;3416;53.074;8.822;2022-07-23T15:09:40;24.00;84.60
6758;DHT22;3416;53.074;8.822;2022-07-23T15:12:07;23.90;85.30
6758;DHT22;3416;53.074;8.822;2022-07-23T15:14:34;24.00;85.20
6758;DHT22;3416;53.074;8.822;2022-07-23T15:17:01;24.00;83.90
6758;DHT22;3416;53.074;8.822;2022-07-23T15:19:28;24.00;83.50
6758;DHT22;3416;53.074;8.822;2022-07-23T15:21:56;23.80;82.80
6758;DHT22;3416;53.074;8.822;2022-07-23T15:24:25;23.80;82.50
6758;DHT22;3416;53.074;8.822;2022-07-23T15:26:51;23.80;82.50
6758;DHT22;3416;53.074;8.822;2022-07-23T15:29:18;23.60;83.30
6758;DHT22;3416;53.074;8.822;2022-07-23T15:31:45;23.70;83.70
6758;DHT22;3416;53.074;8.822;2022-07-23T15:34:12;23.80;84.70
6758;DHT22;3416;53.074;8.822;2022-07-23T15:36:39;23.90;85.80
6758;DHT22;3416;53.074;8.822;2022-07-23T15:39:08;24.00;83.70
6758;DHT22;3416;53.074;8.822;2022-07-23T15:41:35;23.90;82.90
6758;DHT22;3416;53.074;8.822;2022-07-23T15:44:02;23.90;82.20
6758;DHT22;3416;53.074;8.822;2022-07-23T15:46:29;23.90;82.70
6758;DHT22;3416;53.074;8.822;2022-07-23T15:48:57;23.90;84.60
6758;DHT22;3416;53.074;8.822;2022-07-23T15:51:24;23.90;83.70
6758;DHT22;3416;53.074;8.822;2022-07-23T15:53:51;24.00;82.00
6758;DHT22;3416;53.074;8.822;2022-07-23T15:56:20;24.00;81.60
6758;DHT22;3416;53.074;8.822;2022-07-23T15:58:47;24.00;81.90
6758;DHT22;3416;53.074;8.822;2022-07-23T16:01:14;24.10;81.90
6758;DHT22;3416;53.074;8.822;2022-07-23T16:03:41;24.00;82.50
6758;DHT22;3416;53.074;8.822;2022-07-23T16:06:08;23.90;83.00
6758;DHT22;3416;53.074;8.822;2022-07-23T16:08:35;23.70;83.20
6758;DHT22;3416;53.074;8.822;2022-07-23T16:11:03;23.50;83.70
6758;DHT22;3416;53.074;8.822;2022-07-23T16:13:31;23.40;84.10